createdAt,value
2023-02-09T00:01:01.788Z,13.10
2023-02-09T00:03:29.221Z,13.63
2023-02-09T00:05:56.598Z,12.50
2023-02-09T00:08:25.254Z,12.60
2023-02-09T00:10:52.801Z,13.00
2023-02-09T00:13:25.228Z,13.53
2023-02-09T00:15:53.169Z,13.40
2023-02-09T00:18:20.834Z,12.60
2023-02-09T00:20:56.162Z,12.43
2023-02-09T00:23:25.045Z,11.57
2023-02-09T00:25:52.421Z,12.20
2023-02-09T00:28:20.068Z,12.87
2023-02-09T00:30:48.136Z,12.43
2023-02-09T00:33:15.694Z,11.87
2023-02-09T00:35:43.558Z,11.70
2023-02-09T00:38:11.163Z,11.73
2023-02-09T00:40:40.657Z,12.20
2023-02-09T00:43:08.747Z,11.17
2023-02-09T00:45:36.099Z,10.80
2023-02-09T00:48:03.492Z,10.60
2023-02-09T00:50:31.010Z,11.80
2023-02-09T00:52:59.439Z,10.20
2023-02-09T00:55:26.854Z,10.67
2023-02-09T00:57:55.513Z,10.60
2023-02-09T01:00:22.946Z,10.87
2023-02-09T01:02:50.313Z,10.53
2023-02-09T01:05:17.795Z,10.50
2023-02-09T01:07:45.194Z,10.97
2023-02-09T01:10:12.563Z,10.77
2023-02-09T01:12:40.544Z,9.17
2023-02-09T01:15:10.280Z,10.10
2023-02-09T01:17:37.634Z,9.63
2023-02-09T01:20:05.537Z,10.73
2023-02-09T01:22:32.900Z,9.67
2023-02-09T01:25:00.227Z,11.03
2023-02-09T01:27:27.621Z,10.50
2023-02-09T01:29:55.001Z,9.90
2023-02-09T01:32:23.726Z,10.23
2023-02-09T01:34:51.414Z,9.97
2023-02-09T01:37:18.862Z,10.33
2023-02-09T01:39:46.200Z,9.23
2023-02-09T01:42:15.513Z,8.83
2023-02-09T01:45:01.616Z,9.33
2023-02-09T01:47:30.336Z,9.67
2023-02-09T01:49:57.638Z,9.63
2023-02-09T01:52:27.636Z,9.13
2023-02-09T01:54:57.114Z,9.50
2023-02-09T01:57:26.278Z,10.10
2023-02-09T01:59:54.920Z,10.07
2023-02-09T02:02:22.782Z,9.53
2023-02-09T02:04:52.044Z,9.60
2023-02-09T02:07:22.124Z,10.43
2023-02-09T02:09:50.275Z,10.13
2023-02-09T02:12:17.693Z,9.63
2023-02-09T02:14:45.021Z,10.47
2023-02-09T02:17:20.783Z,10.73
2023-02-09T02:20:04.588Z,11.07
2023-02-09T02:22:41.096Z,10.37
2023-02-09T02:25:23.369Z,9.80
2023-02-09T02:27:56.054Z,9.67
2023-02-09T02:30:33.061Z,10.23
2023-02-09T02:33:07.914Z,11.63
2023-02-09T02:35:36.666Z,10.63
2023-02-09T02:38:07.914Z,10.07
2023-02-09T02:40:44.530Z,10.60
2023-02-09T02:43:19.196Z,10.90
2023-02-09T02:45:49.004Z,11.53
2023-02-09T02:48:24.949Z,10.73
2023-02-09T02:50:54.523Z,10.37
2023-02-09T02:53:24.585Z,10.50
2023-02-09T02:55:53.618Z,12.40
2023-02-09T02:58:22.646Z,11.63
2023-02-09T03:00:51.615Z,11.60
2023-02-09T03:03:20.887Z,10.80
2023-02-09T03:05:50.394Z,10.70
2023-02-09T03:08:17.752Z,10.30
2023-02-09T03:10:45.456Z,11.00
2023-02-09T03:13:17.700Z,11.20
2023-02-09T03:15:50.076Z,11.23
2023-02-09T03:18:21.762Z,11.10
2023-02-09T03:20:53.138Z,11.27
2023-02-09T03:23:24.421Z,8.87
2023-02-09T03:25:53.369Z,9.00
2023-02-09T03:28:23.951Z,10.57
2023-02-09T03:30:52.921Z,10.57
2023-02-09T03:33:21.469Z,9.77
2023-02-09T03:35:49.818Z,8.70
2023-02-09T03:38:18.555Z,8.80
2023-02-09T03:40:46.188Z,10.77
2023-02-09T03:43:13.843Z,9.97
2023-02-09T03:45:41.304Z,10.57
2023-02-09T03:48:08.922Z,10.37
2023-02-09T03:50:36.759Z,10.40
2023-02-09T03:53:06.481Z,9.57
2023-02-09T03:55:35.764Z,9.57
2023-02-09T03:58:03.132Z,10.27
2023-02-09T04:00:30.459Z,9.90
2023-02-09T04:02:59.317Z,9.87
2023-02-09T04:05:26.650Z,9.40
2023-02-09T04:07:54.008Z,10.10
2023-02-09T04:10:21.350Z,9.70
2023-02-09T04:12:50.034Z,9.53
2023-02-09T04:15:17.493Z,9.17
2023-02-09T04:17:44.823Z,8.83
2023-02-09T04:20:12.373Z,9.63
2023-02-09T04:22:39.900Z,8.67
2023-02-09T04:25:07.600Z,9.00
2023-02-09T04:27:35.170Z,9.10
2023-02-09T04:30:03.985Z,9.07
2023-02-09T04:32:31.341Z,9.93
2023-02-09T04:34:58.654Z,9.50
2023-02-09T04:37:25.989Z,9.60
2023-02-09T04:39:53.299Z,9.57
2023-02-09T04:42:20.638Z,10.77
2023-02-09T04:44:47.970Z,10.00
2023-02-09T04:47:16.648Z,9.80
2023-02-09T04:49:44.488Z,11.00
2023-02-09T04:52:11.819Z,10.93
2023-02-09T04:54:39.150Z,10.17
2023-02-09T04:57:24.205Z,10.67
2023-02-09T04:59:51.550Z,10.73
2023-02-09T05:02:20.271Z,10.10
2023-02-09T05:04:47.647Z,9.70
2023-02-09T05:07:14.974Z,9.80
2023-02-09T05:09:42.338Z,10.27
2023-02-09T05:12:10.163Z,8.67
2023-02-09T05:14:37.548Z,9.77
2023-02-09T05:17:04.917Z,10.67
2023-02-09T05:19:33.763Z,9.93
2023-02-09T05:22:01.167Z,10.10
2023-02-09T05:24:28.527Z,9.50
2023-02-09T05:26:55.869Z,9.33
2023-02-09T05:29:23.197Z,9.33
2023-02-09T05:31:50.554Z,9.57
2023-02-09T05:34:17.887Z,9.73
2023-02-09T05:36:47.683Z,9.67
2023-02-09T05:39:15.025Z,9.57
2023-02-09T05:41:59.805Z,9.43
2023-02-09T05:44:27.145Z,9.97
2023-02-09T05:46:54.473Z,9.43
2023-02-09T05:49:21.806Z,10.83
2023-02-09T05:51:50.494Z,10.50
2023-02-09T05:54:17.974Z,9.63
2023-02-09T05:56:45.329Z,10.17
2023-02-09T05:59:12.754Z,9.57
2023-02-09T06:01:40.447Z,9.33
2023-02-09T06:04:09.092Z,9.57
2023-02-09T06:06:36.639Z,9.33
2023-02-09T06:09:05.349Z,9.50
2023-02-09T06:11:32.707Z,8.67
2023-02-09T06:14:00.095Z,9.10
2023-02-09T06:16:27.442Z,9.33
2023-02-09T06:18:54.781Z,9.20
2023-02-09T06:21:22.146Z,9.30
2023-02-09T06:23:49.481Z,9.00
2023-02-09T06:26:18.743Z,7.83
2023-02-09T06:28:46.143Z,9.40
2023-02-09T06:31:13.845Z,9.30
2023-02-09T06:33:41.555Z,8.70
2023-02-09T06:36:09.806Z,8.50
2023-02-09T06:38:37.942Z,8.77
2023-02-09T06:41:05.434Z,9.40
2023-02-09T06:43:34.430Z,11.23
2023-02-09T06:46:05.827Z,9.80
2023-02-09T06:48:33.236Z,8.90
2023-02-09T06:51:00.667Z,9.17
2023-02-09T06:53:28.341Z,9.10
2023-02-09T06:56:00.069Z,10.00
2023-02-09T06:58:27.416Z,8.50
2023-02-09T07:00:56.070Z,9.43
2023-02-09T07:03:23.447Z,7.10
2023-02-09T07:05:51.590Z,8.43
2023-02-09T07:08:18.912Z,8.60
2023-02-09T07:10:46.434Z,9.73
2023-02-09T07:13:13.931Z,8.73
2023-02-09T07:15:41.311Z,9.37
2023-02-09T07:18:10.006Z,9.37
2023-02-09T07:20:38.875Z,9.70
2023-02-09T07:23:06.862Z,8.53
2023-02-09T07:25:35.736Z,10.07
2023-02-09T07:28:03.633Z,8.30
2023-02-09T07:30:31.020Z,9.87
2023-02-09T07:32:58.339Z,9.83
2023-02-09T07:35:27.002Z,9.13
2023-02-09T07:37:54.329Z,10.07
2023-02-09T07:40:21.707Z,9.90
2023-02-09T07:42:49.034Z,9.60
2023-02-09T07:45:16.487Z,9.50
2023-02-09T07:47:43.864Z,9.53
2023-02-09T07:50:11.485Z,9.90
2023-02-09T07:52:40.145Z,9.93
2023-02-09T07:55:07.925Z,9.37
2023-02-09T07:57:35.249Z,8.90
2023-02-09T08:00:02.722Z,9.20
2023-02-09T08:02:34.150Z,8.83
2023-02-09T08:05:01.710Z,9.60
2023-02-09T08:07:29.313Z,8.53
2023-02-09T08:09:58.105Z,9.47
2023-02-09T08:12:47.209Z,9.07
2023-02-09T08:15:14.810Z,8.93
2023-02-09T08:17:42.222Z,9.10
2023-02-09T08:20:11.501Z,9.67
2023-02-09T08:22:41.331Z,9.57
2023-02-09T08:25:10.305Z,9.43
2023-02-09T08:27:39.104Z,9.17
2023-02-09T08:30:06.874Z,8.47
2023-02-09T08:32:34.229Z,9.53
2023-02-09T08:35:01.558Z,9.30
2023-02-09T08:37:29.051Z,9.23
2023-02-09T08:39:56.404Z,8.80
2023-02-09T08:42:25.043Z,9.37
2023-02-09T08:44:52.381Z,8.57
2023-02-09T08:47:19.749Z,8.83
2023-02-09T08:49:47.098Z,8.63
2023-02-09T08:52:15.612Z,8.63
2023-02-09T08:54:42.946Z,9.10
2023-02-09T08:57:10.289Z,8.00
2023-02-09T08:59:39.064Z,9.10
2023-02-09T09:02:06.453Z,8.20
2023-02-09T09:04:33.773Z,9.17
2023-02-09T09:07:01.200Z,8.87
2023-02-09T09:09:28.500Z,8.70
2023-02-09T09:11:55.823Z,9.13
2023-02-09T09:14:23.224Z,9.77
2023-02-09T09:16:51.977Z,8.67
2023-02-09T09:19:19.365Z,8.53
2023-02-09T09:21:46.680Z,8.97
2023-02-09T09:24:14.011Z,9.30
2023-02-09T09:26:41.348Z,9.03
2023-02-09T09:29:10.380Z,8.73
2023-02-09T09:31:38.006Z,10.73
2023-02-09T09:34:06.749Z,9.60
2023-02-09T09:36:34.105Z,9.07
2023-02-09T09:39:01.623Z,8.77
2023-02-09T09:41:31.586Z,9.13
2023-02-09T09:43:59.630Z,9.20
2023-02-09T09:46:32.944Z,9.03
2023-02-09T09:49:00.615Z,8.57
2023-02-09T09:51:34.768Z,8.70
2023-02-09T09:54:03.624Z,9.80
2023-02-09T09:56:32.004Z,8.83
2023-02-09T09:59:00.468Z,8.73
2023-02-09T10:01:29.095Z,9.23
2023-02-09T10:03:57.939Z,9.33
2023-02-09T10:06:25.288Z,8.80
2023-02-09T10:08:56.270Z,8.40
2023-02-09T10:11:25.935Z,8.70
2023-02-09T10:13:54.022Z,9.80
2023-02-09T10:16:24.824Z,10.13
2023-02-09T10:18:53.046Z,9.17
2023-02-09T10:21:20.577Z,9.53
2023-02-09T10:23:48.526Z,8.67
2023-02-09T10:26:27.484Z,9.83
2023-02-09T10:28:56.659Z,9.43
2023-02-09T10:31:25.684Z,9.30
2023-02-09T10:33:56.592Z,9.13
2023-02-09T10:36:26.290Z,9.00
2023-02-09T10:38:54.358Z,9.23
2023-02-09T10:41:22.330Z,9.37
2023-02-09T10:43:53.403Z,9.83
2023-02-09T10:46:21.441Z,9.20
2023-02-09T10:48:48.829Z,9.80
2023-02-09T10:51:17.076Z,8.63
2023-02-09T10:53:58.747Z,9.27
2023-02-09T10:56:27.133Z,9.37
2023-02-09T10:59:00.322Z,9.30
2023-02-09T11:01:28.084Z,9.33
2023-02-09T11:04:00.162Z,9.33
2023-02-09T11:06:28.062Z,9.37
2023-02-09T11:08:57.349Z,9.10
2023-02-09T11:11:28.537Z,9.27
2023-02-09T11:13:57.415Z,9.10
2023-02-09T11:16:33.829Z,9.53
2023-02-09T11:19:05.389Z,8.90
2023-02-09T11:21:45.276Z,8.80
2023-02-09T11:24:17.245Z,9.27
2023-02-09T11:26:49.432Z,9.23
2023-02-09T11:29:22.452Z,9.13
2023-02-09T11:32:01.132Z,9.10
2023-02-09T11:34:38.553Z,8.33
2023-02-09T11:37:11.396Z,9.30
2023-02-09T11:39:42.463Z,17.90
2023-02-09T11:42:31.254Z,9.80
2023-02-09T11:45:02.531Z,8.97
2023-02-09T11:47:33.075Z,9.40
2023-02-09T11:50:02.997Z,9.63
2023-02-09T11:52:32.420Z,9.47
2023-02-09T11:55:01.278Z,8.87
2023-02-09T11:57:32.574Z,9.30
2023-02-09T12:00:03.007Z,9.90
2023-02-09T12:02:41.733Z,9.50
2023-02-09T12:05:11.238Z,10.03
2023-02-09T12:07:43.018Z,9.17
2023-02-09T12:10:15.636Z,9.67
2023-02-09T12:12:45.463Z,9.07
2023-02-09T12:15:16.700Z,9.60
2023-02-09T12:17:47.431Z,10.33
2023-02-09T12:20:23.199Z,9.53
2023-02-09T12:22:56.643Z,9.17
2023-02-09T12:25:31.858Z,10.50
2023-02-09T12:28:11.255Z,9.73
2023-02-09T12:31:00.502Z,10.27
2023-02-09T12:33:31.823Z,9.00
2023-02-09T12:36:00.682Z,9.00
2023-02-09T12:38:49.353Z,9.73
2023-02-09T12:41:18.038Z,9.43
2023-02-09T12:43:45.994Z,9.00
2023-02-09T12:46:22.677Z,8.97
2023-02-09T12:48:51.369Z,10.13
2023-02-09T12:51:52.087Z,10.13
2023-02-09T12:54:29.920Z,10.67
2023-02-09T12:56:57.626Z,9.33
2023-02-09T12:59:25.863Z,9.47
2023-02-09T13:02:23.944Z,9.70
2023-02-09T13:04:55.543Z,10.07
2023-02-09T13:07:26.424Z,9.83
2023-02-09T13:09:55.453Z,8.87
2023-02-09T13:12:28.251Z,9.03
2023-02-09T13:14:55.704Z,9.57
2023-02-09T13:17:29.043Z,8.57
2023-02-09T13:20:14.548Z,8.50
2023-02-09T13:22:48.445Z,9.57
2023-02-09T13:25:29.877Z,9.47
2023-02-09T13:27:57.265Z,8.93
2023-02-09T13:30:28.938Z,8.87
2023-02-09T13:33:03.156Z,9.17
2023-02-09T13:35:33.804Z,8.47
2023-02-09T13:38:01.787Z,8.47
2023-02-09T13:40:30.581Z,9.10
2023-02-09T13:43:00.035Z,8.60
2023-02-09T13:45:28.062Z,9.90
2023-02-09T13:47:55.944Z,9.17
2023-02-09T13:50:24.397Z,8.83
2023-02-09T13:52:53.086Z,8.80
2023-02-09T13:55:21.360Z,8.60
2023-02-09T13:57:52.362Z,8.60
2023-02-09T14:00:23.331Z,9.07
2023-02-09T14:02:53.079Z,8.70
2023-02-09T14:05:23.494Z,9.13
2023-02-09T14:07:51.744Z,9.17
2023-02-09T14:10:21.168Z,9.10
2023-02-09T14:12:55.760Z,9.70
2023-02-09T14:15:44.293Z,9.20
2023-02-09T14:18:32.072Z,8.87
2023-02-09T14:21:03.181Z,8.47
2023-02-09T14:23:33.047Z,8.97
2023-02-09T14:26:05.223Z,9.43
2023-02-09T14:28:33.033Z,8.60
2023-02-09T14:31:00.602Z,9.20
2023-02-09T14:33:28.747Z,9.03
2023-02-09T14:35:59.083Z,8.00
2023-02-09T14:38:36.626Z,9.33
2023-02-09T14:44:01.100Z,8.77
2023-02-09T14:46:28.598Z,8.77
2023-02-09T14:48:56.658Z,8.27
2023-02-09T14:51:24.106Z,8.93
2023-02-09T14:53:51.497Z,8.70
2023-02-09T14:56:22.242Z,9.20
2023-02-09T14:58:49.558Z,9.43
2023-02-09T15:01:18.429Z,9.00
2023-02-09T15:03:45.795Z,10.03
2023-02-09T15:06:13.968Z,9.53
2023-02-09T15:08:41.892Z,9.30
2023-02-09T15:11:25.598Z,8.63
2023-02-09T15:13:54.508Z,9.37
2023-02-09T15:16:23.283Z,10.20
2023-02-09T15:18:50.642Z,9.60
2023-02-09T15:21:18.021Z,9.80
2023-02-09T15:23:45.368Z,9.23
2023-02-09T15:26:15.976Z,9.23
2023-02-09T15:28:43.490Z,9.60
2023-02-09T15:31:14.994Z,9.43
2023-02-09T15:33:44.756Z,10.33
2023-02-09T15:36:12.913Z,9.77
2023-02-09T15:38:40.261Z,9.57
2023-02-09T15:41:25.355Z,9.10
2023-02-09T15:44:10.165Z,9.47
2023-02-09T15:46:55.098Z,10.27
2023-02-09T15:49:23.751Z,10.00
2023-02-09T15:51:51.176Z,10.40
2023-02-09T15:54:19.683Z,10.43
2023-02-09T15:56:47.141Z,10.10
2023-02-09T15:59:17.553Z,9.93
2023-02-09T16:01:44.945Z,10.83
2023-02-09T16:04:14.125Z,10.57
2023-02-09T16:06:45.426Z,10.97
2023-02-09T16:09:17.254Z,10.27
2023-02-09T16:11:45.569Z,10.87
2023-02-09T16:14:15.905Z,9.73
2023-02-09T16:16:44.676Z,11.40
2023-02-09T16:19:12.289Z,10.87
2023-02-09T16:21:39.964Z,10.53
2023-02-09T16:24:09.045Z,10.57
2023-02-09T16:26:36.364Z,10.23
2023-02-09T16:29:04.067Z,9.90
2023-02-09T16:31:31.608Z,12.17
2023-02-09T16:33:58.960Z,11.37
2023-02-09T16:36:29.072Z,11.07
2023-02-09T16:38:56.530Z,11.67
2023-02-09T16:41:42.728Z,10.23
2023-02-09T16:44:15.144Z,12.90
2023-02-09T16:46:42.593Z,12.37
2023-02-09T16:49:12.842Z,11.03
2023-02-09T16:51:40.215Z,11.60
2023-02-09T16:54:07.558Z,9.30
2023-02-09T16:56:46.033Z,11.17
2023-02-09T16:59:19.998Z,13.07
2023-02-09T17:01:48.751Z,12.70
2023-02-09T17:04:16.223Z,12.50
2023-02-09T17:06:44.927Z,12.00
2023-02-09T17:09:14.941Z,12.93
2023-02-09T17:11:43.672Z,12.53
2023-02-09T17:14:12.353Z,11.77
2023-02-09T17:16:41.561Z,12.90
2023-02-09T17:19:13.701Z,13.47
2023-02-09T17:21:41.139Z,11.90
2023-02-09T17:24:12.996Z,10.93
2023-02-09T17:26:40.536Z,12.10
2023-02-09T17:29:09.300Z,11.50
2023-02-09T17:31:52.003Z,12.43
2023-02-09T17:34:21.942Z,13.70
2023-02-09T17:36:49.275Z,12.53
2023-02-09T17:39:18.903Z,14.83
2023-02-09T17:41:48.340Z,13.63
2023-02-09T17:44:26.456Z,12.87
2023-02-09T17:46:59.215Z,13.03
2023-02-09T17:49:26.549Z,13.73
2023-02-09T17:51:54.054Z,13.77
2023-02-09T17:54:21.949Z,14.57
2023-02-09T17:56:49.331Z,14.83
2023-02-09T17:59:20.113Z,14.80
2023-02-09T18:01:49.575Z,13.70
2023-02-09T18:04:17.693Z,14.63
2023-02-09T18:06:45.135Z,12.93
2023-02-09T18:09:13.375Z,14.87
2023-02-09T18:11:42.976Z,13.87
2023-02-09T18:14:12.711Z,15.63
2023-02-09T18:16:42.564Z,13.80
2023-02-09T18:19:10.048Z,15.50
2023-02-09T18:21:37.387Z,14.70
2023-02-09T18:24:05.962Z,14.93
2023-02-09T18:26:33.987Z,13.13
2023-02-09T18:29:01.395Z,15.03
2023-02-09T18:31:28.824Z,14.50
2023-02-09T18:33:57.587Z,14.93
2023-02-09T18:36:24.926Z,13.93
2023-02-09T18:38:53.444Z,13.83
2023-02-09T18:41:20.775Z,14.23
2023-02-09T18:43:48.149Z,17.30
2023-02-09T18:46:15.803Z,15.57
2023-02-09T18:48:43.194Z,15.30
2023-02-09T18:51:12.107Z,15.63
2023-02-09T18:53:39.946Z,15.90
2023-02-09T18:56:07.464Z,13.43
2023-02-09T18:58:36.545Z,16.00
2023-02-09T19:01:03.902Z,16.50
2023-02-09T19:03:31.247Z,14.80
2023-02-09T19:05:58.587Z,17.20
2023-02-09T19:08:27.223Z,16.77
2023-02-09T19:10:54.606Z,16.87
2023-02-09T19:13:21.983Z,15.10
2023-02-09T19:15:49.711Z,13.80
2023-02-09T19:18:17.317Z,14.93
2023-02-09T19:20:44.755Z,15.43
2023-02-09T19:23:12.044Z,14.50
2023-02-09T19:25:40.656Z,15.53
2023-02-09T19:28:08.015Z,13.90
2023-02-09T19:30:35.373Z,13.80
2023-02-09T19:33:02.762Z,15.03
2023-02-09T19:35:30.091Z,16.03
2023-02-09T19:37:58.375Z,15.60
2023-02-09T19:40:35.353Z,15.40
2023-02-09T19:43:04.784Z,14.13
2023-02-09T19:45:36.318Z,15.77
2023-02-09T19:48:04.299Z,15.13
2023-02-09T19:50:31.716Z,12.63
2023-02-09T19:52:59.234Z,15.63
2023-02-09T19:55:26.540Z,13.67
2023-02-09T19:57:53.895Z,13.93
2023-02-09T20:00:22.745Z,13.30
2023-02-09T20:02:50.218Z,13.57
2023-02-09T20:05:18.007Z,14.60
2023-02-09T20:07:45.336Z,14.23
2023-02-09T20:10:12.718Z,13.00
2023-02-09T20:12:40.118Z,13.40
2023-02-09T20:15:07.671Z,15.20
2023-02-09T20:17:36.353Z,14.77
2023-02-09T20:20:04.089Z,15.27
2023-02-09T20:22:31.442Z,13.60
2023-02-09T20:24:58.812Z,14.83
2023-02-09T20:27:26.185Z,15.33
2023-02-09T20:29:57.138Z,14.97
2023-02-09T20:32:24.496Z,15.00
2023-02-09T20:34:53.184Z,14.80
2023-02-09T20:37:20.605Z,15.60
2023-02-09T20:39:48.040Z,14.97
2023-02-09T20:42:33.206Z,15.27
2023-02-09T20:45:18.272Z,14.70
2023-02-09T20:47:45.593Z,14.77
2023-02-09T20:50:16.699Z,14.07
2023-02-09T20:52:45.596Z,14.13
2023-02-09T20:55:13.024Z,13.90
2023-02-09T20:57:40.429Z,14.27
2023-02-09T21:00:09.585Z,16.53
2023-02-09T21:02:36.994Z,14.20
2023-02-09T21:05:05.511Z,14.20
2023-02-09T21:07:34.471Z,13.47
2023-02-09T21:10:01.933Z,15.40
2023-02-09T21:12:29.508Z,13.93
2023-02-09T21:14:58.759Z,13.00
2023-02-09T21:17:26.141Z,15.97
2023-02-09T21:19:53.476Z,15.03
2023-02-09T21:22:21.042Z,15.10
2023-02-09T21:24:49.728Z,15.47
2023-02-09T21:27:17.075Z,15.60
2023-02-09T21:29:44.458Z,14.83
2023-02-09T21:32:11.814Z,15.27
2023-02-09T21:34:39.156Z,15.37
2023-02-09T21:37:10.086Z,15.20
2023-02-09T21:39:37.578Z,14.80
2023-02-09T21:42:24.252Z,15.40
2023-02-09T21:44:51.641Z,16.27
2023-02-09T21:47:18.966Z,15.90
2023-02-09T21:49:46.323Z,15.77
2023-02-09T21:52:13.680Z,15.27
2023-02-09T21:54:41.002Z,16.07
2023-02-09T21:57:09.702Z,15.87
2023-02-09T21:59:37.010Z,17.17
2023-02-09T22:02:04.715Z,15.07
2023-02-09T22:04:32.205Z,15.17
2023-02-09T22:06:59.618Z,15.30
2023-02-09T22:09:27.140Z,15.43
2023-02-09T22:11:54.493Z,14.67
2023-02-09T22:14:23.196Z,16.10
2023-02-09T22:16:50.573Z,16.23
2023-02-09T22:19:17.991Z,15.00
2023-02-09T22:21:45.328Z,15.60
2023-02-09T22:24:13.512Z,15.43
2023-02-09T22:26:41.616Z,15.63
2023-02-09T22:29:09.435Z,16.83
2023-02-09T22:31:38.162Z,15.27
2023-02-09T22:34:07.171Z,15.17
2023-02-09T22:36:34.913Z,15.57
2023-02-09T22:39:02.964Z,15.67
2023-02-09T22:41:30.324Z,15.10
2023-02-09T22:43:58.164Z,16.27
2023-02-09T22:46:26.584Z,15.30
2023-02-09T22:48:55.960Z,15.33
2023-02-09T22:51:23.955Z,14.93
2023-02-09T22:53:51.703Z,15.10
2023-02-09T22:56:19.054Z,15.30
2023-02-09T22:58:46.370Z,15.47
2023-02-09T23:01:13.781Z,15.03
2023-02-09T23:03:41.378Z,16.47
2023-02-09T23:06:12.936Z,16.37
2023-02-09T23:08:40.338Z,16.13
2023-02-09T23:11:08.962Z,16.47
2023-02-09T23:13:36.986Z,16.40
2023-02-09T23:16:08.336Z,16.80
2023-02-09T23:18:35.744Z,16.63
2023-02-09T23:21:03.567Z,17.37
2023-02-09T23:23:32.269Z,17.03
2023-02-09T23:25:59.635Z,17.97
2023-02-09T23:28:27.031Z,19.23
2023-02-09T23:30:54.541Z,20.27
2023-02-09T23:33:22.117Z,20.83
2023-02-09T23:35:49.730Z,19.03
2023-02-09T23:38:17.947Z,19.10
2023-02-09T23:40:46.709Z,18.67
2023-02-09T23:43:14.196Z,18.57
2023-02-09T23:45:41.533Z,19.30
2023-02-09T23:48:08.981Z,18.73
2023-02-09T23:50:36.335Z,19.07
2023-02-09T23:53:03.873Z,19.00
2023-02-09T23:55:31.240Z,17.73
2023-02-09T23:57:59.901Z,20.33
